createdAt,value
2018-12-23T00:01:49.441Z,99329.83
2018-12-23T00:04:19.563Z,99324.46
2018-12-23T00:06:49.515Z,99324.18
2018-12-23T00:09:19.489Z,99329.05
2018-12-23T00:11:49.496Z,99326.23
2018-12-23T00:14:19.518Z,99329.58
2018-12-23T00:16:49.542Z,99334.94
2018-12-23T00:19:19.560Z,99333.91
2018-12-23T00:21:49.508Z,99331.50
2018-12-23T00:24:19.571Z,99339.30
2018-12-23T00:26:49.590Z,99339.02
2018-12-23T00:29:19.506Z,99337.13
2018-12-23T00:31:53.114Z,99340.30
2018-12-23T00:34:22.921Z,99341.58
2018-12-23T00:36:52.836Z,99346.57
2018-12-23T00:39:22.850Z,99347.48
2018-12-23T00:41:52.873Z,99343.52
2018-12-23T00:44:22.776Z,99347.48
2018-12-23T00:46:52.799Z,99351.19
2018-12-23T00:49:22.700Z,99346.20
2018-12-23T00:51:52.700Z,99350.53
2018-12-23T00:54:22.846Z,99360.27
2018-12-23T00:56:52.720Z,99354.25
2018-12-23T00:59:22.561Z,99353.09
2018-12-23T01:01:52.590Z,99360.14
2018-12-23T01:04:22.597Z,99362.05
2018-12-23T01:06:52.619Z,99367.64
2018-12-23T01:09:22.841Z,99368.44
2018-12-23T01:11:52.781Z,99378.29
2018-12-23T01:14:22.728Z,99376.34
2018-12-23T01:16:52.779Z,99375.32
2018-12-23T01:19:22.718Z,99369.09
2018-12-23T01:21:52.800Z,99373.17
2018-12-23T01:24:22.887Z,99367.94
2018-12-23T01:26:52.794Z,99368.17
2018-12-23T01:29:22.748Z,99367.40
2018-12-23T01:31:52.758Z,99377.25
2018-12-23T01:34:23.077Z,99385.30
2018-12-23T01:36:53.024Z,99396.06
2018-12-23T01:39:23.228Z,99392.70
2018-12-23T01:41:53.228Z,99388.98
2018-12-23T01:44:23.156Z,99398.56
2018-12-23T01:46:53.021Z,99397.81
2018-12-23T01:49:22.978Z,99411.99
2018-12-23T01:51:52.997Z,99402.14
2018-12-23T01:54:23.011Z,99406.23
2018-12-23T01:56:53.034Z,99404.71
2018-12-23T01:59:23.040Z,99401.92
2018-12-23T02:01:53.074Z,99415.12
2018-12-23T02:04:23.068Z,99412.02
2018-12-23T02:06:53.182Z,99415.36
2018-12-23T02:09:23.094Z,99416.63
2018-12-23T02:11:53.112Z,99418.77
2018-12-23T02:14:23.125Z,99419.31
2018-12-23T02:16:53.199Z,99421.09
2018-12-23T02:19:23.266Z,99412.01
2018-12-23T02:21:53.300Z,99413.16
2018-12-23T02:24:23.250Z,99421.98
2018-12-23T02:26:53.084Z,99413.91
2018-12-23T02:29:23.076Z,99417.36
2018-12-23T02:31:52.986Z,99413.14
2018-12-23T02:34:23.213Z,99420.03
2018-12-23T02:36:53.271Z,99422.09
2018-12-23T02:39:23.230Z,99426.70
2018-12-23T02:41:53.080Z,99420.06
2018-12-23T02:44:23.108Z,99424.81
2018-12-23T02:46:53.009Z,99432.22
2018-12-23T02:49:23.014Z,99426.20
2018-12-23T02:51:52.961Z,99429.92
2018-12-23T02:54:22.968Z,99432.61
2018-12-23T02:56:52.972Z,99433.39
2018-12-23T02:59:22.997Z,99441.56
2018-12-23T03:01:52.961Z,99444.90
2018-12-23T03:04:22.850Z,99447.96
2018-12-23T03:06:52.825Z,99448.50
2018-12-23T03:09:22.774Z,99448.37
2018-12-23T03:11:52.761Z,99447.20
2018-12-23T03:14:22.887Z,99449.34
2018-12-23T03:16:52.887Z,99456.03
2018-12-23T03:19:22.858Z,99459.33
2018-12-23T03:21:52.709Z,99456.41
2018-12-23T03:24:22.661Z,99462.13
2018-12-23T03:26:52.646Z,99473.64
2018-12-23T03:29:22.666Z,99478.88
2018-12-23T03:31:52.887Z,99478.13
2018-12-23T03:34:22.900Z,99488.06
2018-12-23T03:36:52.821Z,99493.71
2018-12-23T03:39:22.834Z,99495.62
2018-12-23T03:41:52.855Z,99498.05
2018-12-23T03:44:22.866Z,99503.56
2018-12-23T03:46:52.767Z,99497.30
2018-12-23T03:49:22.796Z,99490.14
2018-12-23T03:51:52.741Z,99497.06
2018-12-23T03:54:22.714Z,99504.18
2018-12-23T03:56:52.851Z,99504.83
2018-12-23T03:59:22.775Z,99504.65
2018-12-23T04:01:52.868Z,99500.05
2018-12-23T04:04:22.893Z,99510.00
2018-12-23T04:06:52.800Z,99507.83
2018-12-23T04:09:22.911Z,99512.65
2018-12-23T04:11:52.934Z,99513.19
2018-12-23T04:14:22.942Z,99512.95
2018-12-23T04:16:53.061Z,99524.59
2018-12-23T04:19:22.924Z,99524.62
2018-12-23T04:21:52.933Z,99526.56
2018-12-23T04:24:22.907Z,99531.03
2018-12-23T04:26:52.974Z,99525.64
2018-12-23T04:29:22.931Z,99517.97
2018-12-23T04:31:52.843Z,99524.48
2018-12-23T04:34:22.879Z,99534.86
2018-12-23T04:36:52.780Z,99532.20
2018-12-23T04:39:22.860Z,99541.27
2018-12-23T04:41:52.916Z,99543.34
2018-12-23T04:44:22.907Z,99545.13
2018-12-23T04:46:53.355Z,99556.84
2018-12-23T04:49:23.321Z,99559.61
2018-12-23T04:51:53.265Z,99568.91
2018-12-23T04:54:23.287Z,99561.64
2018-12-23T04:56:53.309Z,99560.73
2018-12-23T04:59:23.323Z,99570.61
2018-12-23T05:01:53.294Z,99571.33
2018-12-23T05:04:23.316Z,99562.79
2018-12-23T05:06:53.260Z,99556.10
2018-12-23T05:09:23.295Z,99570.80
2018-12-23T05:11:53.294Z,99582.78
2018-12-23T05:14:23.217Z,99597.64
2018-12-23T05:16:53.227Z,99590.73
2018-12-23T05:19:23.150Z,99600.73
2018-12-23T05:21:53.268Z,99606.58
2018-12-23T05:24:23.275Z,99603.49
2018-12-23T05:26:53.151Z,99607.09
2018-12-23T05:29:23.038Z,99612.47
2018-12-23T05:31:53.016Z,99615.33
2018-12-23T05:34:23.017Z,99608.16
2018-12-23T05:36:53.176Z,99612.13
2018-12-23T05:39:23.368Z,99612.53
2018-12-23T05:41:53.385Z,99612.92
2018-12-23T05:44:23.297Z,99627.25
2018-12-23T05:46:53.625Z,99627.69
2018-12-23T05:49:23.520Z,99624.56
2018-12-23T05:51:53.424Z,99629.33
2018-12-23T05:54:23.390Z,99629.09
2018-12-23T05:56:53.261Z,99635.08
2018-12-23T05:59:23.237Z,99649.14
2018-12-23T06:01:53.239Z,99644.56
2018-12-23T06:04:23.099Z,99647.39
2018-12-23T06:07:00.727Z,99644.09
2018-12-23T06:09:24.913Z,99646.65
2018-12-23T06:11:54.847Z,99647.36
2018-12-23T06:14:24.917Z,99663.98
2018-12-23T06:16:55.123Z,99655.03
2018-12-23T06:19:25.097Z,99656.71
2018-12-23T06:21:55.050Z,99653.78
2018-12-23T06:24:25.003Z,99657.45
2018-12-23T06:26:54.899Z,99657.09
2018-12-23T06:29:24.782Z,99668.08
2018-12-23T06:31:55.464Z,99667.58
2018-12-23T06:34:25.763Z,99672.94
2018-12-23T06:36:55.974Z,99667.42
2018-12-23T06:39:25.987Z,99672.43
2018-12-23T06:41:55.939Z,99664.87
2018-12-23T06:44:28.194Z,99671.05
2018-12-23T06:46:58.289Z,99672.80
2018-12-23T06:49:28.360Z,99676.06
2018-12-23T06:51:58.623Z,99685.75
2018-12-23T06:54:28.638Z,99683.85
2018-12-23T06:56:58.554Z,99688.15
2018-12-23T06:59:28.461Z,99690.20
2018-12-23T07:01:58.275Z,99686.00
2018-12-23T07:04:28.285Z,99688.15
2018-12-23T07:06:58.240Z,99695.45
2018-12-23T07:09:28.122Z,99695.68
2018-12-23T07:12:59.361Z,99695.08
2018-12-23T07:15:29.678Z,99707.31
2018-12-23T07:17:59.693Z,99699.88
2018-12-23T07:20:29.728Z,99709.88
2018-12-23T07:22:59.715Z,99709.27
2018-12-23T07:25:29.754Z,99702.30
2018-12-23T07:27:59.659Z,99708.98
2018-12-23T07:30:29.691Z,99708.88
2018-12-23T07:32:59.582Z,99707.81
2018-12-23T07:35:29.525Z,99713.50
2018-12-23T07:37:59.525Z,99718.89
2018-12-23T07:40:29.584Z,99725.65
2018-12-23T07:44:03.443Z,99725.28
2018-12-23T07:46:33.616Z,99731.67
2018-12-23T07:49:03.482Z,99733.76
2018-12-23T07:51:33.505Z,99734.03
2018-12-23T07:54:03.513Z,99734.56
2018-12-23T07:56:33.527Z,99729.35
2018-12-23T07:59:03.645Z,99733.09
2018-12-23T08:01:33.595Z,99724.44
2018-12-23T08:04:03.458Z,99719.59
2018-12-23T08:06:33.488Z,99717.03
2018-12-23T08:09:04.842Z,99716.16
2018-12-23T08:11:34.847Z,99717.20
2018-12-23T08:14:04.733Z,99717.46
2018-12-23T08:16:34.769Z,99723.25
2018-12-23T08:19:04.783Z,99720.95
2018-12-23T08:21:34.629Z,99725.06
2018-12-23T08:24:04.528Z,99724.69
2018-12-23T08:26:34.825Z,99722.02
2018-12-23T08:29:04.748Z,99729.97
2018-12-23T08:31:34.724Z,99727.17
2018-12-23T08:34:04.777Z,99723.89
2018-12-23T08:36:34.676Z,99724.16
2018-12-23T08:39:06.680Z,99720.34
2018-12-23T08:41:36.766Z,99713.22
2018-12-23T08:44:06.824Z,99706.06
2018-12-23T08:46:39.247Z,99703.81
2018-12-23T08:49:08.753Z,99689.23
2018-12-23T08:51:38.585Z,99684.66
2018-12-23T08:54:08.580Z,99681.20
2018-12-23T08:56:38.509Z,99688.88
2018-12-23T08:59:08.506Z,99685.04
2018-12-23T09:01:39.042Z,99688.52
2018-12-23T09:04:10.832Z,99686.86
2018-12-23T09:06:40.806Z,99688.14
2018-12-23T09:09:11.039Z,99691.86
2018-12-23T09:11:42.939Z,99689.55
2018-12-23T09:14:12.872Z,99696.58
2018-12-23T09:16:42.773Z,99689.79
2018-12-23T09:19:12.829Z,99693.14
2018-12-23T09:21:49.810Z,99695.18
2018-12-23T09:24:19.708Z,99699.43
2018-12-23T09:26:49.842Z,99698.39
2018-12-23T09:29:19.856Z,99700.17
2018-12-23T09:31:49.773Z,99701.09
2018-12-23T09:34:19.715Z,99702.88
2018-12-23T09:36:49.705Z,99700.07
2018-12-23T09:39:19.677Z,99698.42
2018-12-23T09:41:49.629Z,99696.66
2018-12-23T09:44:19.578Z,99696.66
2018-12-23T09:46:49.658Z,99696.05
2018-12-23T09:49:19.677Z,99696.05
2018-12-23T09:51:49.629Z,99697.81
2018-12-23T09:54:19.607Z,99694.47
2018-12-23T09:56:49.774Z,99695.13
2018-12-23T09:59:19.731Z,99693.97
2018-12-23T10:01:49.754Z,99696.41
2018-12-23T10:04:19.662Z,99690.63
2018-12-23T10:06:49.787Z,99689.34
2018-12-23T10:09:19.706Z,99691.42
2018-12-23T10:11:49.700Z,99680.91
2018-12-23T10:14:19.734Z,99676.17
2018-12-23T10:16:49.849Z,99670.42
2018-12-23T10:19:19.850Z,99666.28
2018-12-23T10:21:49.664Z,99661.82
2018-12-23T10:24:19.794Z,99655.91
2018-12-23T10:26:49.807Z,99653.47
2018-12-23T10:29:19.809Z,99643.10
2018-12-23T10:31:49.835Z,99640.16
2018-12-23T10:34:19.791Z,99638.88
2018-12-23T10:36:49.803Z,99632.59
2018-12-23T10:39:19.821Z,99620.16
2018-12-23T10:41:49.776Z,99613.91
2018-12-23T10:44:19.902Z,99619.94
2018-12-23T10:46:49.888Z,99615.30
2018-12-23T10:49:20.040Z,99608.26
2018-12-23T10:51:49.999Z,99598.38
2018-12-23T10:54:20.035Z,99601.19
2018-12-23T10:56:49.884Z,99599.27
2018-12-23T10:59:20.196Z,99595.56
2018-12-23T11:01:50.135Z,99591.34
2018-12-23T11:04:20.136Z,99588.89
2018-12-23T11:07:00.869Z,99582.86
2018-12-23T11:09:31.043Z,99584.80
2018-12-23T11:12:01.247Z,99579.91
2018-12-23T11:14:31.330Z,99578.09
2018-12-23T11:17:02.519Z,99581.05
2018-12-23T11:19:32.546Z,99574.39
2018-12-23T11:22:02.613Z,99576.02
2018-12-23T11:24:36.056Z,99570.49
2018-12-23T11:27:06.236Z,99567.30
2018-12-23T11:29:36.182Z,99558.79
2018-12-23T11:32:06.293Z,99564.45
2018-12-23T11:34:36.255Z,99559.30
2018-12-23T11:37:06.270Z,99559.02
2018-12-23T11:39:36.338Z,99549.22
2018-12-23T11:42:06.455Z,99547.42
2018-12-23T11:44:36.472Z,99546.11
2018-12-23T11:47:06.577Z,99543.31
2018-12-23T11:49:36.708Z,99537.13
2018-12-23T11:52:06.750Z,99540.84
2018-12-23T11:54:36.839Z,99530.91
2018-12-23T11:57:06.950Z,99524.20
2018-12-23T11:59:36.909Z,99521.98
2018-12-23T12:02:15.063Z,99515.30
2018-12-23T12:04:38.944Z,99511.56
2018-12-23T12:07:08.910Z,99511.03
2018-12-23T12:09:38.872Z,99504.31
2018-12-23T12:12:09.297Z,99499.32
2018-12-23T12:14:39.220Z,99501.44
2018-12-23T12:17:09.340Z,99494.48
2018-12-23T12:19:39.338Z,99488.92
2018-12-23T12:23:13.242Z,99490.66
2018-12-23T12:25:44.381Z,99488.24
2018-12-23T12:28:15.378Z,99480.53
2018-12-23T12:30:46.566Z,99477.66
2018-12-23T12:33:17.684Z,99470.69
2018-12-23T12:35:48.670Z,99474.01
2018-12-23T12:38:19.793Z,99473.22
2018-12-23T12:40:52.304Z,99465.72
2018-12-23T12:43:23.658Z,99461.11
2018-12-23T12:46:00.534Z,99468.13
2018-12-23T12:48:27.727Z,99465.03
2018-12-23T12:50:58.794Z,99469.78
2018-12-23T12:53:29.889Z,99477.61
2018-12-23T12:56:02.598Z,99465.30
2018-12-23T12:58:33.862Z,99463.14
2018-12-23T13:01:04.899Z,99462.89
2018-12-23T13:03:35.909Z,99465.45
2018-12-23T13:06:06.829Z,99456.57
2018-12-23T13:08:37.971Z,99459.28
2018-12-23T13:11:09.154Z,99452.28
2018-12-23T13:13:40.209Z,99452.39
2018-12-23T13:16:11.402Z,99456.77
2018-12-23T13:18:42.432Z,99453.63
2018-12-23T13:21:13.698Z,99451.36
2018-12-23T13:23:44.907Z,99448.38
2018-12-23T13:26:16.038Z,99441.45
2018-12-23T13:28:47.161Z,99439.00
2018-12-23T13:31:18.239Z,99440.66
2018-12-23T13:33:49.373Z,99442.06
2018-12-23T13:36:20.420Z,99446.60
2018-12-23T13:38:51.412Z,99443.23
2018-12-23T13:42:19.670Z,99440.55
2018-12-23T13:45:36.918Z,99442.64
2018-12-23T13:49:05.010Z,99430.22
2018-12-23T13:52:28.412Z,99427.92
2018-12-23T13:55:47.188Z,99413.46
2018-12-23T13:59:08.152Z,99411.27
2018-12-23T14:02:24.739Z,99407.58
2018-12-23T14:05:25.828Z,99402.11
2018-12-23T14:08:39.161Z,99399.02
2018-12-23T14:11:56.574Z,99398.53
2018-12-23T14:14:27.579Z,99394.67
2018-12-23T14:16:58.788Z,99391.09
2018-12-23T14:19:29.958Z,99398.01
2018-12-23T14:22:01.020Z,99399.70
2018-12-23T14:24:32.150Z,99406.78
2018-12-23T14:27:03.513Z,99402.66
2018-12-23T14:29:34.544Z,99402.16
2018-12-23T14:32:05.452Z,99394.16
2018-12-23T14:34:36.511Z,99385.58
2018-12-23T14:37:07.613Z,99398.91
2018-12-23T14:39:38.718Z,99388.91
2018-12-23T14:42:09.603Z,99385.95
2018-12-23T14:44:40.777Z,99385.84
2018-12-23T14:47:11.769Z,99381.61
2018-12-23T14:49:42.855Z,99379.80
2018-12-23T14:52:14.108Z,99366.95
2018-12-23T14:54:45.084Z,99363.91
2018-12-23T14:57:16.133Z,99364.28
2018-12-23T14:59:47.189Z,99357.38
2018-12-23T15:02:18.365Z,99359.30
2018-12-23T15:04:49.322Z,99353.31
2018-12-23T15:07:20.332Z,99350.17
2018-12-23T15:09:51.475Z,99346.09
2018-12-23T15:12:22.570Z,99356.27
2018-12-23T15:14:53.504Z,99343.31
2018-12-23T15:17:24.590Z,99345.98
2018-12-23T15:19:55.672Z,99341.12
2018-12-23T15:22:26.620Z,99337.95
2018-12-23T15:24:57.870Z,99337.84
2018-12-23T15:27:29.259Z,99333.25
2018-12-23T15:30:00.289Z,99325.70
2018-12-23T15:32:31.540Z,99329.67
2018-12-23T15:35:03.118Z,99329.40
2018-12-23T15:37:34.148Z,99318.70
2018-12-23T15:40:05.404Z,99329.23
2018-12-23T15:42:36.519Z,99317.84
2018-12-23T15:45:07.844Z,99314.87
2018-12-23T15:47:39.063Z,99310.69
2018-12-23T15:50:10.199Z,99304.12
2018-12-23T15:52:41.264Z,99296.69
2018-12-23T15:55:12.339Z,99299.15
2018-12-23T15:57:43.430Z,99292.73
2018-12-23T16:00:14.524Z,99297.59
2018-12-23T16:02:45.604Z,99291.83
2018-12-23T16:05:16.594Z,99293.36
2018-12-23T16:07:47.724Z,99292.84
2018-12-23T16:10:18.924Z,99284.92
2018-12-23T16:12:50.093Z,99286.20
2018-12-23T16:15:21.376Z,99276.47
2018-12-23T16:17:52.369Z,99275.46
2018-12-23T16:20:24.029Z,99271.92
2018-12-23T16:22:55.040Z,99272.95
2018-12-23T16:25:25.967Z,99276.04
2018-12-23T16:27:56.958Z,99273.95
2018-12-23T16:30:28.059Z,99272.30
2018-12-23T16:32:59.046Z,99271.66
2018-12-23T16:35:30.009Z,99271.28
2018-12-23T16:38:01.161Z,99256.16
2018-12-23T16:40:32.208Z,99261.56
2018-12-23T16:43:03.368Z,99259.67
2018-12-23T16:45:34.500Z,99251.70
2018-12-23T16:48:05.754Z,99244.33
2018-12-23T16:50:36.791Z,99242.25
2018-12-23T16:53:07.749Z,99246.52
2018-12-23T16:55:39.004Z,99238.41
2018-12-23T16:58:10.050Z,99241.66
2018-12-23T17:00:41.206Z,99232.31
2018-12-23T17:03:12.075Z,99219.38
2018-12-23T17:05:43.170Z,99215.94
2018-12-23T17:08:14.288Z,99222.46
2018-12-23T17:10:45.358Z,99216.20
2018-12-23T17:13:16.614Z,99212.25
2018-12-23T17:15:47.742Z,99207.61
2018-12-23T17:18:18.851Z,99202.37
2018-12-23T17:20:49.939Z,99207.50
2018-12-23T17:23:21.068Z,99193.17
2018-12-23T17:25:52.075Z,99200.87
2018-12-23T17:28:23.110Z,99196.91
2018-12-23T17:30:54.179Z,99190.35
2018-12-23T17:33:25.228Z,99189.59
2018-12-23T17:35:56.928Z,99190.08
2018-12-23T17:38:28.124Z,99183.17
2018-12-23T17:40:59.194Z,99183.39
2018-12-23T17:43:30.530Z,99195.32
2018-12-23T17:46:01.808Z,99195.90
2018-12-23T17:48:32.814Z,99185.58
2018-12-23T17:51:04.014Z,99180.28
2018-12-23T17:53:35.134Z,99183.50
2018-12-23T17:56:06.295Z,99170.78
2018-12-23T17:58:37.406Z,99171.68
2018-12-23T18:01:08.618Z,99175.15
2018-12-23T18:03:39.855Z,99170.29
2018-12-23T18:06:10.929Z,99165.78
2018-12-23T18:08:42.109Z,99163.33
2018-12-23T18:11:13.275Z,99166.27
2018-12-23T18:13:44.358Z,99161.80
2018-12-23T18:16:15.726Z,99156.28
2018-12-23T18:18:46.766Z,99156.39
2018-12-23T18:21:17.986Z,99146.86
2018-12-23T18:23:49.191Z,99143.91
2018-12-23T18:26:26.863Z,99143.12
2018-12-23T18:29:01.141Z,99137.19
2018-12-23T18:31:32.099Z,99134.62
2018-12-23T18:34:03.584Z,99135.69
2018-12-23T18:36:34.659Z,99138.78
2018-12-23T18:39:07.909Z,99139.44
2018-12-23T18:41:39.302Z,99128.27
2018-12-23T18:44:10.282Z,99123.13
2018-12-23T18:46:41.405Z,99121.09
2018-12-23T18:49:12.465Z,99119.01
2018-12-23T18:51:43.985Z,99116.44
2018-12-23T18:54:15.163Z,99108.53
2018-12-23T18:56:49.351Z,99112.66
2018-12-23T18:59:24.722Z,99109.33
2018-12-23T19:02:10.620Z,99105.65
2018-12-23T19:04:41.795Z,99106.03
2018-12-23T19:07:15.524Z,99093.47
2018-12-23T19:10:03.520Z,99094.55
2018-12-23T19:13:23.923Z,99101.83
2018-12-23T19:16:32.347Z,99095.47
2018-12-23T19:19:47.551Z,99094.36
2018-12-23T19:22:50.865Z,99093.34
2018-12-23T19:26:07.395Z,99092.75
2018-12-23T19:28:50.105Z,99087.14
2018-12-23T19:32:18.281Z,99087.00
2018-12-23T19:35:46.391Z,99080.09
2018-12-23T19:39:02.005Z,99081.38
2018-12-23T19:42:30.261Z,99084.22
2018-12-23T19:45:45.136Z,99079.09
2018-12-23T19:48:42.131Z,99076.03
2018-12-23T19:52:08.300Z,99077.86
2018-12-23T19:55:15.654Z,99077.38
2018-12-23T19:58:34.715Z,99066.59
2018-12-23T20:01:38.314Z,99073.11
2018-12-23T20:04:52.606Z,99064.55
2018-12-23T20:08:08.207Z,99063.13
2018-12-23T20:11:22.254Z,99065.94
2018-12-23T20:14:50.320Z,99072.25
2018-12-23T20:18:18.580Z,99059.26
2018-12-23T20:21:36.358Z,99058.25
2018-12-23T20:24:41.054Z,99053.22
2018-12-23T20:28:01.438Z,99061.02
2018-12-23T20:31:22.999Z,99056.17
2018-12-23T20:34:51.175Z,99058.84
2018-12-23T20:38:13.910Z,99057.83
2018-12-23T20:41:35.352Z,99052.77
2018-12-23T20:44:53.555Z,99037.27
2018-12-23T20:48:07.700Z,99039.73
2018-12-23T20:51:35.897Z,99037.71
2018-12-23T20:54:55.350Z,99020.06
2018-12-23T20:57:58.657Z,99024.67
2018-12-23T21:01:22.465Z,99027.62
2018-12-23T21:04:50.603Z,99019.44
2018-12-23T21:08:03.816Z,99012.92
2018-12-23T21:11:30.032Z,98998.61
2018-12-23T21:14:44.162Z,99001.83
2018-12-23T21:18:07.442Z,98999.53
2018-12-23T21:21:18.445Z,98988.97
2018-12-23T21:24:35.229Z,98988.97
2018-12-23T21:28:00.689Z,98994.85
2018-12-23T21:31:36.752Z,98993.46
2018-12-23T21:34:40.656Z,98994.15
2018-12-23T21:38:12.347Z,98981.88
2018-12-23T21:41:38.708Z,98981.04
2018-12-23T21:45:05.798Z,98976.92
2018-12-23T21:48:33.884Z,98984.23
2018-12-23T21:51:56.077Z,98977.41
2018-12-23T21:55:24.173Z,98974.25
2018-12-23T21:58:48.250Z,98966.67
2018-12-23T22:02:09.642Z,98964.37
2018-12-23T22:05:37.810Z,98951.19
2018-12-23T22:09:05.994Z,98952.47
2018-12-23T22:12:28.882Z,98967.95
2018-12-23T22:14:59.971Z,98961.92
2018-12-23T22:17:31.112Z,98953.75
2018-12-23T22:20:02.214Z,98949.27
2018-12-23T22:22:33.326Z,98944.56
2018-12-23T22:25:04.383Z,98939.92
2018-12-23T22:27:35.753Z,98942.00
2018-12-23T22:30:07.533Z,98940.20
2018-12-23T22:32:38.683Z,98936.45
2018-12-23T22:35:10.042Z,98940.20
2018-12-23T22:37:41.181Z,98927.91
2018-12-23T22:40:12.332Z,98932.13
2018-12-23T22:42:43.462Z,98922.36
2018-12-23T22:45:14.624Z,98910.73
2018-12-23T22:47:49.439Z,98903.04
2018-12-23T22:50:20.492Z,98909.45
2018-12-23T22:52:51.713Z,98904.32
2018-12-23T22:55:22.945Z,98898.70
2018-12-23T22:57:54.252Z,98899.47
2018-12-23T23:00:31.722Z,98897.42
2018-12-23T23:03:08.952Z,98897.42
2018-12-23T23:05:35.524Z,98893.06
2018-12-23T23:08:06.622Z,98896.53
2018-12-23T23:10:37.683Z,98890.50
2018-12-23T23:13:08.807Z,98892.20
2018-12-23T23:15:39.994Z,98899.47
2018-12-23T23:18:11.024Z,98902.45
2018-12-23T23:20:41.919Z,98873.84
2018-12-23T23:23:13.043Z,98874.26
2018-12-23T23:25:44.155Z,98870.69
2018-12-23T23:28:15.352Z,98866.43
2018-12-23T23:30:46.613Z,98872.84
2018-12-23T23:33:17.660Z,98860.55
2018-12-23T23:35:48.743Z,98857.46
2018-12-23T23:38:19.761Z,98837.27
2018-12-23T23:40:51.042Z,98834.70
2018-12-23T23:43:24.291Z,98842.39
2018-12-23T23:45:55.624Z,98839.42
2018-12-23T23:48:26.559Z,98846.24
2018-12-23T23:50:58.445Z,98833.98
2018-12-23T23:53:30.024Z,98835.75
2018-12-23T23:56:01.294Z,98844.51
2018-12-23T23:58:32.312Z,98845.02
